Trick or Trot
Timing and Scoring by Toledo Roadrunners

 

PlaceDiv/TotSex/TotTimePaceNameAgeSexCityState
1 1/11 1/78 20:20 6:33 SCOTT FORSYTHE 47 M TOLEDO OH
2 1/4 2/78 20:50 6:43 BRANDON FITCH 29 M GRAND RAPIDS OH
3 1/6 3/78 20:55 6:44 JOHN FINDLING 30 M PERRYSBURG OH
4 1/24 1/106 21:06 6:48 MEGAN KINS 31 F PERRYSBURG OH
5 2/6 4/78 21:13 6:50 NICHOLAS SNYDER 31 M STRYKER OH
6 2/11 5/78 22:35 7:16 DAVE KIESSLING 43 M WILLOWICK OH
7 2/24 2/106 23:04 7:26 CHERYL BROGAN 33 F PERRYSBURG OH
8 1/5 6/78 23:31 7:34 CJ RAMIREZ 8 M TOLEDO OH
9 1/17 3/106 23:33 7:35 JENNIE LAMBERT 47 F PERRYSBURG OH
10 1/11 4/106 23:34 7:35 LISA CHURA 50 F PORT CLINTON OH
11 1/6 5/106 23:36 7:36 DONNA OLSON 64 F SOUTHGATE MI
12 1/9 7/78 23:38 7:37 RION MYERS 36 M LIBERTY CENTER OH
13 3/11 8/78 23:40 7:37 TONY CARUSO 48 M CHELSEA MI
14 2/5 9/78 24:00 7:44 BRAYDEN BULL 9 M METAMORA OH
15 1/15 10/78 24:04 7:45 KEN ROWE 67 M SOUTHGATE MI
16 3/24 6/106 24:14 7:48 BRANDI KRAUS 34 F TEMPERANCE, MI MI
17 1/14 7/106 24:18 7:50 MELISSA DYKHUIS 35 F SYLVANIA OH
18 1/7 8/106 24:39 7:56 SARA KNOLLMAN 23 F BOWLING GREEN OH
19 1/9 11/78 24:40 7:57 JIM CHIPKA 55 M WATERVILLE OH
20 2/15 12/78 24:47 7:59 KENT WHITMAN 61 M GENOA OH
21 1/6 9/106 24:56 8:02 MARGARET SMITH 14 F WHITEHOUSE OH
22 2/6 10/106 24:57 8:02 EMMA SCHADEWALD 13 F WHITEHOUSE OH
23 4/24 11/106 25:18 8:09 MARCIA HONISKO 33 F SYLVANIA OH
24 2/11 12/106 25:20 8:10 JULIE THEROUX 56 F WHITEHOUSE OH
25 2/9 13/78 25:43 8:17 TOM HINDE 55 M SANTA ROSA CA
26 2/17 13/106 25:50 8:19 DENISE DASHNER 44 F TEMPERANCE MI
27 2/6 14/106 25:57 8:21 KAY HEINRICHS 67 F TOLEDO OH
28 3/11 15/106 26:07 8:25 LYNNE FORSYTHE 50 F TOLEDO OH
29 1/10 16/106 26:08 8:25 EMILY WEST 25 F TOLEDO OH
30 1/10 14/78 26:16 8:28 SETH CAMPBELL 13 M MAUMEE OH
31 4/11 17/106 26:21 8:29 MARY JO WITFOTH 55 F SWANTON OH
32 3/9 15/78 26:22 8:29 GLENN GMITTER 50 M MAUMEE OH
33 2/10 16/78 26:34 8:33 JACKSON DIAS 11 M TOLEDO OH
34 3/17 18/106 26:35 8:34 BECKY BETHEL 43 F WATERVILLE OH
35 1/3 17/78 26:37 8:34 JORDAN KANTNER-O'CONN 21 M MAUMEE OH
36 5/24 19/106 26:48 8:38 COURTNEY KONIK 33 F SYLVANIA OH
37 3/15 18/78 26:55 8:40 THOMAS BIBLEWSKI 63 M TOLEDO OH
38 3/6 19/78 27:04 8:43 SEAN FISHER 32 M TOLEDO OH
39 2/14 20/106 27:06 8:44 ERICA SKIVER 37 F TOLEDO OH
40 4/15 20/78 27:07 8:44 ED QUILTER 60 M CAPE CORAL FL
41 4/9 21/78 27:09 8:45 DOMINGO VALADEZ 55 M TEMPERANCE MI
42 3/5 22/78 27:09 8:45 TY ZAPADKA 8 M TOLEDO OH
43 5/15 23/78 27:10 8:45 JOE WEIHER 62 M NORTHWOOD OH
44 6/24 21/106 27:27 8:50 MEGAN ZAPADKA 33 F TOLEDO OH
45 6/15 24/78 27:29 8:51 GEORGE HO 63 M OREGON OH
46 4/17 22/106 27:32 8:52 LESLEY KRUZEL 41 F HOLLAND OH
47 7/15 25/78 27:41 8:55 ROBERT OKULSKI 60 M MILLBURY OH
48 4/6 26/78 27:59 9:01 BRAD SCHROEDER 30 M BOWLING GREEN OH
49 3/10 27/78 28:24 9:09 JIMMY LAMBERT 12 M PERRYSBURG OH
50 3/14 23/106 28:28 9:10 ANDREA BOM 37 F PERRYSBURG OH

Trick or Trot
Timing and Scoring by Toledo Roadrunners

 

PlaceDiv/TotSex/TotTimePaceNameAgeSexCityState
51 5/9 28/78 28:37 9:13 DAN SCHUTT 52 M TOLEDO OH
52 8/15 29/78 28:37 9:13 MERLE GRAMS 68 M MANITOU BEACH MI
53 4/10 30/78 28:48 9:17 OLIVER SKINNER 11 M HOLLAND OH
54 1/4 31/78 29:03 9:21 WILLIAM GOSLINE 70 M TOLEDO OH
55 9/15 32/78 29:07 9:23 JIM MILLS 66 M PERRYSBURG OH
56 5/10 33/78 29:10 9:24 BEN BETHEL 10 M WATERVILLE OH
57 5/11 24/106 29:14 9:25 ANNETTE TIETJE 52 F DESHLER OH
58 7/24 25/106 29:33 9:31 SOMLAK DURIS 34 F OREGON OH
59 5/6 34/78 29:33 9:31 CAIN MYERS 32 M NEW ORLEANS LA
60 5/17 26/106 29:35 9:32 DARCY KANTNER 41 F MAUMEE OH
61 2/4 35/78 29:50 9:36 JOSH SEEGERT 26 M TOLEDO OH
62 6/9 36/78 30:13 9:44 MIKE REMER 56 M BROOKLYN MI
63 2/9 37/78 30:21 9:46 JASON SIMMONS 37 M MONROE MI
64 4/14 27/106 30:23 9:47 JESSICA MEEKER 38 F MAUMEE OH
65 10/15 38/78 30:28 9:49 GILBERT WILSON 64 M TOLEDO OH
66 6/17 28/106 30:29 9:49 LISA STREIB 47 F PERRYSBURG OH
67 4/11 39/78 30:32 9:50 CHRIS SKINNER 44 M HOLLAND OH
68 7/9 40/78 30:36 9:51 MARKO RAICH 54 M PALMYRA MI
69 7/17 29/106 30:38 9:52 SUSAN DE NIES 48 F TOLEDO OH
70 3/9 41/78 30:48 9:55 STEVE TERRY 37 M TOLEDO OH
71 4/9 42/78 31:07 10:01 EDWARD REDMON 37 M LAMBERVILLE MI
72 8/17 30/106 31:14 10:04 JANE CATTELL 45 F PALMYRA MI
73 3/6 31/106 31:19 10:05 JOSELYN KIDD 13 F WHITEHOUSE OH
74 9/17 32/106 31:32 10:09 LEONE HALL 44 F TOLEDO OH
75 5/14 33/106 31:33 10:10 RONDA FLEMING 36 F TOLEDO OH
76 5/9 43/78 31:34 10:10 MICHAEL EMCH 36 M TOLEDO OH
77 6/9 44/78 31:34 10:10 DAVID PRINCE 37 M HOLLAND OH
78 11/15 45/78 31:57 10:17 JESUS ALVAREZ 66 M WAYNE OH
79 6/14 34/106 32:01 10:19 KERRY WOLFF 39 F CURTICE OH
80 7/14 35/106 32:01 10:19 MICHELLE KELLER 36 F MAUMEE OH
81 8/24 36/106 32:04 10:20 JESSICA KRYGIELSKI 33 F WATERVILLE OH
82 8/9 46/78 32:20 10:25 JEFF VANDEMARK 54 M PERRYSBURG OH
83 10/17 37/106 32:31 10:28 JULIE MCGURK 48 F MAUMEE OH
84 5/11 47/78 32:31 10:28 KEVIN PAWLICKI 48 M WATERVILLE OH
85 2/4 48/78 32:49 10:34 JEROME TOMC 72 M TOLEDO OH
86 2/10 38/106 32:50 10:35 SARAH WAGNER 29 F TOLEDO OH
87 3/4 49/78 33:00 10:38 JOHNATHAN ALLEN 25 M TOLEDO OH
88 3/10 39/106 33:00 10:38 CASSANDRA ALLEN 26 F TOLEDO OH
89 4/10 40/106 33:03 10:39 ABBEY SCHELL 27 F TOLEDO OH
90 9/24 41/106 33:05 10:39 SARA RICCHIO 33 F KENOSHA WI
91 6/11 50/78 33:57 10:56 MIKE CAMPBELL 41 M MAUMEE OH
92 7/11 51/78 33:58 10:56 ROBERT GOTTFRIED 43 M TOLEDO OH
93 2/3 52/78 33:59 10:57 LUKE POLITO 22 M ARLINGTON VA
94 2/7 42/106 33:59 10:57 ASHLEY SCHOEN 21 F MAUMEE OH
95 6/6 53/78 34:06 10:59 DAN WAGNER 31 M TOLEDO OH
96 10/24 43/106 34:15 11:02 KIIA GLASS 30 F TOLEDO OH
97 5/10 44/106 34:16 11:02 MARY JANE COMPIAN 29 F WALBRIDGE OH
98 1/2 54/78 34:33 11:08 JASON KIDD 15 M WHITEHOUSE OH
99 1/10 45/106 34:36 11:09 KATE MORAN 7 F MAUMEE OH
100 4/5 55/78 34:40 11:10 DAVID JOHNSON 7 M TOLEDO OH

Trick or Trot
Timing and Scoring by Toledo Roadrunners

 

PlaceDiv/TotSex/TotTimePaceNameAgeSexCityState
101 2/10 46/106 34:41 11:10 LILY OGRODOWSKI 7 F WATERVILLE OH
102 8/14 47/106 34:55 11:15 MELANIE OGRODOWSKI 39 F WATERVILLE OH
103 11/24 48/106 35:01 11:16 ABI FEHRENBACH 33 F PERRYSBURG OH
104 6/10 49/106 35:15 11:21 SANDRA ANDERSON 28 F PERRYSBURG OH
105 3/4 56/78 35:38 11:29 CARL ANDERSON 73 M MONCLOVA OH
106 3/3 57/78 35:48 11:32 STEPHEN SCHOLL 24 M BOWLING GREEN OH
107 12/24 50/106 35:49 11:32 JENNIFER COSGROVE 32 F TOLEDO OH
108 6/10 58/78 36:03 11:37 JOSHUA BLUE 10 M TOLEDO OH
109 13/24 51/106 36:03 11:37 CARMEN KANTNER 33 F MAUMEE OH
110 11/17 52/106 36:08 11:38 KATHLEEN BANNISTER 47 F PERRYSBURG OH
111 12/15 59/78 36:29 11:45 CHRIS CONROY 65 M MAUMEE OH
112 6/11 53/106 36:29 11:45 JENNY BARLOS 53 F MAUMEE OH
113 14/24 54/106 36:33 11:46 JESSICA GALLOWAY 33 F TOLEDO OH
114 7/10 55/106 36:49 11:51 MOLY POPE 26 F TOLEDO OH
115 12/17 56/106 36:52 11:52 HEIDI CLAYTON 40 F TOLEDO OH
116 7/11 57/106 36:58 11:54 CAROL FORBES 56 F WAUSEON OH
117 8/11 60/78 36:59 11:55 CURTISS BUCHWALTER 49 M OAK HARBOR OH
118 13/15 61/78 37:09 11:58 RALPH SNYDER 64 M STRYKER OH
119 14/15 62/78 38:08 12:17 BOB THEROUX 60 M WHITEHOUSE OH
120 8/11 58/106 38:10 12:17 LINDA BUCHWALTER 50 F OAK HARBOR OH
121 8/10 59/106 38:48 12:30 ASHLEY STAMBAUGH 26 F SWANTON OH
122 15/24 60/106 38:48 12:30 LEIGH PANCOAST 33 F SWANTON OH
123 7/10 63/78 39:19 12:40 ZACHARY WENZKE 13 M SYLVANIA OH
124 9/10 61/106 39:24 12:41 CHARLOTTE SEEGERT 27 F TOLEDO OH
125 3/7 62/106 39:28 12:43 LEAH MORRIS 24 F PERRYSBURG OH
126 4/7 63/106 39:29 12:43 MOLLY JAMES 24 F PERRYSBURG OH
127 3/10 64/106 39:36 12:45 HANNAH MILLER 9 F TOLEDO OH
128 9/14 65/106 39:37 12:45 SARAH FOGEL 35 F TOLEDO OH
129 9/11 66/106 39:39 12:46 CATHY LEPRE 53 F MAUMEE OH
130 13/17 67/106 39:39 12:46 BETH REGO 49 F TOLEDO OH
131 15/15 64/78 39:43 12:47 MARLIN SHORT 66 M WAUSEON OH
132 8/10 65/78 40:22 13:00 JARED LINDKE 13 M HOLLAND OH
133 9/10 66/78 40:24 13:00 ETHAN WEGHORST 13 M TOLEDO OH
134 3/6 68/106 40:25 13:01 KATHY CARNICOM 61 F WATERVILLE OH
135 16/24 69/106 40:38 13:05 CARRIE BRASS 34 F WHITEHOUSE OH
136 4/10 70/106 40:39 13:05 HAILEY BRASS 9 F WHITEHOUSE OH
137 9/11 67/78 40:40 13:06 LOREN SULLIVAN 41 M WHITEHOUSE OH
138 10/10 68/78 40:49 13:09 ANTONY RODRIGUEZ 12 M HOLLAND OH
139 10/11 69/78 40:51 13:09 BILL KIDD 42 M WHITEHOUSE OH
140 17/24 71/106 40:55 13:10 DIANA RODRIGUEZ 33 F HOLLAND OH
141 10/14 72/106 41:03 13:13 MELISSA MYSINGER 38 F TOLEDO OH
142 11/14 73/106 41:04 13:13 REBECCA ABU-ABSI 39 F TOLEDO OH
143 4/4 70/78 41:46 13:27 DENNIS BUCHWALTER 27 M OAK HARBOR OH
144 4/6 74/106 41:57 13:30 EMMA SULLIVAN 11 F WHITEHOUSE OH
145 9/9 71/78 42:21 13:38 QUINTIN REYNOLDS 50 M PERRYSBURG OH
146 5/6 75/106 42:34 13:42 MEGAN SULLIVAN 10 F WHITEHOUSE OH
147 10/11 76/106 42:40 13:44 WENDY BOONE 54 F DELTA OH
148 5/10 77/106 42:42 13:45 ASHLEY BRASS 7 F WHITEHOUSE OH
149 11/11 72/78 43:56 14:09 TONY BLUE 45 M TOLEDO OH
150 4/6 78/106 43:56 14:09 MAUREEN MOOMEY 60 F SYLVANIA OH

Trick or Trot
Timing and Scoring by Toledo Roadrunners

 

PlaceDiv/TotSex/TotTimePaceNameAgeSexCityState
151 4/4 73/78 45:09 14:32 CYRIL STEINHAUSER 73 M LA SALLE MI
152 14/17 79/106 45:27 14:38 KAREN RADER 49 F    
153 7/9 74/78 45:27 14:38 JACOB WEST 38 M WAYNE OH
154 6/10 80/106 45:47 14:44 EVELYN BLUE 8 F TOLEDO OH
155 5/7 81/106 46:18 14:55 HANNAH ZAPIECKI 22 F MAUMEE OH
156 15/17 82/106 46:24 14:56 RACHEL KOWALINSKI 42 F MAUMEE OH
157 18/24 83/106 47:00 15:08 SHANNON MARKEL 34 F MAUMEE OH
158 12/14 84/106 47:07 15:10 ANGELA COUTCHER 39 F PERRYSBURG OH
159 7/10 85/106 47:16 15:13 HADLEY WERNERT 6 F TOLEDO OH
160 8/10 86/106 47:19 15:14 ELENA JOHNSON 9 F TOLEDO OH
161 13/14 87/106 47:27 15:17 JENNIFER JOHNSON 37 F TOLEDO OH
162 11/11 88/106 48:16 15:33 LISA YOUNGKER 53 F DEFIANCE OH
163 10/10 89/106 48:17 15:33 AMY ELKINS 26 F DEFIANCE OH
164 19/24 90/106 48:43 15:41 CHRISSY CARNICOM 34 F TOLEDO OH
165 9/10 91/106 48:56 15:45 SYDNEY BULL 5 F METAMORA OH
166 16/17 92/106 48:57 15:46 TAMMIE BULL 41 F METAMORA OH
167 8/9 75/78 49:46 16:01 BRIAN BULL 39 M METAMORA OH
168 10/10 93/106 49:52 16:03 LILY CAMPBELL 9 F MAUMEE OH
169 17/17 94/106 49:55 16:04 ANGEL CAMPBELL 40 F MAUMEE OH
170 6/7 95/106 50:45 16:21 KACI MILLER 21 F BLOOMVILLE OH
171 20/24 96/106 50:45 16:21 CHRIS BLACK 33 F PERRYSBURG OH
172 14/14 97/106 51:48 16:41 SHANNON SHULTZ 37 F PERRYSBURG OH
173 6/6 98/106 51:48 16:41 KAYLA GARN 14 F PERRYSBURG OH
174 1/1 99/106 52:07 16:47 CAROLYN GOTTFRIED 70 F TOLEDO OH
175 2/2 76/78 52:30 16:54 XAVIER HARRISON 18 M PIQUA OH
176 7/7 100/106 52:30 16:54 BRANDYN BROSHIOUS 22 F PERRYSBURG OH
177 21/24 101/106 54:40 17:36 KELLY MCNELLIS 32 F WATERVILLE OH
178 5/6 102/106 54:45 17:38 SUSAN URBAN 60 F NAPOLEON OH
179 22/24 103/106 54:46 17:38 ELIZABETH WALSH 32 F ROSSFORD OH
180 5/5 77/78 56:32 18:12 MILES KRYGIELSKI 8 M WATERVILLE OH
181 23/24 104/106 57:14 18:26 SARAH MOOMEY 34 F SYLVANIA OH
182 6/6 105/106 58:05 18:42 K. CELESTE GRIME 67 F WATERVILLE OH
183 24/24 106/106 1:09:36 22:24 KRISTIN GRIMSHAW 33 F PERRYSBURG OH
184 9/9 78/78 1:09:36 22:25 CHIP GRIMSHAW 37 M PERRYSBURG  

********** AWARDS LIST **************

********** FEMALE OVERALL RESULTS ***********

1 MEGAN KINS 31 PERRYSBURG OH 21:06

********** MALE OVERALL RESULTS ***********

1 SCOTT FORSYTHE 47 Toledo OH 20:20

********** FEMALE MASTERS RESULTS ***********

1 JENNIE LAMBERT 47 Perrysburg OH 23:33

********** MALE MASTERS RESULTS ***********

1 DAVE KIESSLING 43 Willowick OH 22:35

FEMALE AGE GROUP 1 - 9

1 99 KATE MORAN 7 Maumee OH 34:36
2 101 LILY OGRODOWSKI 7 Waterville OH 34:41
3 127 HANNAH MILLER 9 Toledo OH 39:36

MALE AGE GROUP 1 - 9

1 8 CJ RAMIREZ 8 Toledo OH 23:31
2 14 BRAYDEN BULL 9 Metamora OH 24:00
3 42 TY ZAPADKA 8 Toledo OH 27:09

FEMALE AGE GROUP 10 - 14

1 21 MARGARET SMITH 14 Whitehouse OH 24:56
2 22 EMMA SCHADEWALD 13 Whitehouse OH 24:57
3 73 JOSELYN KIDD 13 Whitehouse OH 31:19

MALE AGE GROUP 10 - 14

1 30 SETH CAMPBELL 13 Maumee OH 26:16
2 33 JACKSON DIAS 11 TOLEDO OH 26:34
3 49 JIMMY LAMBERT 12 Perrysburg OH 28:24

FEMALE AGE GROUP 15 - 19

 

MALE AGE GROUP 15 - 19

1 98 JASON KIDD 15 Whitehouse OH 34:33
2 175 XAVIER HARRISON 18 Piqua OH 52:30

FEMALE AGE GROUP 20 - 24

1 18 SARA KNOLLMAN 23 Bowling Green OH 24:39
2 94 ASHLEY SCHOEN 21 MAUMEE OH 33:59
3 125 LEAH MORRIS 24 Perrysburg OH 39:28

MALE AGE GROUP 20 - 24

1 35 JORDAN KANTNER-O'CONN 21 Maumee OH 26:37
2 93 LUKE POLITO 22 ARLINGTON VA 33:59
3 106 STEPHEN SCHOLL 24 Bowling Green OH 35:48

FEMALE AGE GROUP 25 - 29

1 29 EMILY WEST 25 Toledo OH 26:08
2 86 SARAH WAGNER 29 Toledo OH 32:50
3 88 CASSANDRA ALLEN 26 Toledo OH 33:00

MALE AGE GROUP 25 - 29

1 2 BRANDON FITCH 29 Grand Rapids OH 20:50
2 61 JOSH SEEGERT 26 Toledo OH 29:50
3 87 JOHNATHAN ALLEN 25 Toledo OH 33:00

FEMALE AGE GROUP 30 - 34

1 7 CHERYL BROGAN 33 PERRYSBURG OH 23:04
2 16 BRANDI KRAUS 34 Temperance, MI MI 24:14
3 23 MARCIA HONISKO 33 SYLVANIA OH 25:18

MALE AGE GROUP 30 - 34

1 3 JOHN FINDLING 30 Perrysburg OH 20:55
2 5 NICHOLAS SNYDER 31 STRYKER OH 21:13
3 38 SEAN FISHER 32 Toledo OH 27:04

FEMALE AGE GROUP 35 - 39

1 17 MELISSA DYKHUIS 35 Sylvania OH 24:18
2 39 ERICA SKIVER 37 TOLEDO OH 27:06
3 50 ANDREA BOM 37 PERRYSBURG OH 28:28

MALE AGE GROUP 35 - 39

1 12 RION MYERS 36 LIBERTY CENTER OH 23:38
2 63 JASON SIMMONS 37 Monroe MI 30:21
3 70 STEVE TERRY 37 toledo OH 30:48

FEMALE AGE GROUP 40 - 49

1 26 DENISE DASHNER 44 Temperance MI 25:50
2 34 BECKY BETHEL 43 Waterville OH 26:35
3 46 LESLEY KRUZEL 41 HOLLAND OH 27:32

MALE AGE GROUP 40 - 49

1 13 TONY CARUSO 48 Chelsea MI 23:40
2 67 CHRIS SKINNER 44 holland OH 30:32
3 84 KEVIN PAWLICKI 48 WATERVILLE OH 32:31

FEMALE AGE GROUP 50 - 59

1 10 LISA CHURA 50 PORT CLINTON OH 23:34
2 24 JULIE THEROUX 56 WHITEHOUSE OH 25:20
3 28 LYNNE FORSYTHE 50 Toledo OH 26:07

MALE AGE GROUP 50 - 59

1 19 JIM CHIPKA 55 WATERVILLE OH 24:40
2 25 TOM HINDE 55 SANTA ROSA CA 25:43
3 32 GLENN GMITTER 50 Maumee OH 26:22

FEMALE AGE GROUP 60 - 69

1 11 DONNA OLSON 64 SOUTHGATE MI 23:36
2 27 KAY HEINRICHS 67 Toledo OH 25:57
3 134 KATHY CARNICOM 61 Waterville OH 40:25

MALE AGE GROUP 60 - 69

1 15 KEN ROWE 67 SOUTHGATE MI 24:04
2 20 KENT WHITMAN 61 Genoa OH 24:47
3 37 THOMAS BIBLEWSKI 63 Toledo OH 26:55

FEMALE AGE GROUP 70 - 99

1 174 CAROLYN GOTTFRIED 70 Toledo OH 52:07

MALE AGE GROUP 70 - 99

1 54 WILLIAM GOSLINE 70 Toledo OH 29:03
2 85 JEROME TOMC 72 Toledo OH 32:49
3 105 CARL ANDERSON 73 Monclova OH 35:38